createdAt,value
2019-04-05T00:01:10.970Z,101248.03
2019-04-05T00:03:42.268Z,101255.09
2019-04-05T00:06:13.480Z,101244.22
2019-04-05T00:08:44.848Z,101247.30
2019-04-05T00:11:16.012Z,101253.11
2019-04-05T00:13:47.547Z,101247.09
2019-04-05T00:16:18.770Z,101249.63
2019-04-05T00:18:50.310Z,101251.50
2019-04-05T00:21:22.032Z,101249.48
2019-04-05T00:23:53.125Z,101248.26
2019-04-05T00:26:24.378Z,101260.50
2019-04-05T00:28:55.991Z,101261.73
2019-04-05T00:31:28.431Z,101263.19
2019-04-05T00:33:59.522Z,101266.48
2019-04-05T00:36:30.987Z,101265.09
2019-04-05T00:39:02.427Z,101264.99
2019-04-05T00:41:35.173Z,101266.05
2019-04-05T00:44:06.525Z,101271.75
2019-04-05T00:46:37.724Z,101274.31
2019-04-05T00:49:08.993Z,101274.91
2019-04-05T00:51:40.453Z,101265.95
2019-04-05T00:54:12.929Z,101272.45
2019-04-05T00:56:44.283Z,101269.70
2019-04-05T00:59:15.729Z,101270.11
2019-04-05T01:01:46.927Z,101270.25
2019-04-05T01:04:18.472Z,101271.11
2019-04-05T01:06:49.683Z,101266.56
2019-04-05T01:09:21.039Z,101262.98
2019-04-05T01:11:52.303Z,101260.41
2019-04-05T01:14:23.624Z,101260.41
2019-04-05T01:16:54.771Z,101262.33
2019-04-05T01:19:28.858Z,101262.08
2019-04-05T01:22:00.360Z,101259.98
2019-04-05T01:24:31.614Z,101264.70
2019-04-05T01:27:03.006Z,101262.91
2019-04-05T01:29:34.387Z,101262.67
2019-04-05T01:32:05.749Z,101262.11
2019-04-05T01:34:37.083Z,101259.62
2019-04-05T01:37:08.261Z,101267.19
2019-04-05T01:39:39.484Z,101263.67
2019-04-05T01:42:10.994Z,101264.95
2019-04-05T01:44:42.295Z,101267.44
2019-04-05T01:47:13.517Z,101262.80
2019-04-05T01:49:44.798Z,101267.00
2019-04-05T01:52:15.918Z,101270.36
2019-04-05T01:54:48.415Z,101267.91
2019-04-05T01:57:19.827Z,101272.19
2019-04-05T01:59:51.313Z,101271.80
2019-04-05T02:02:22.567Z,101284.23
2019-04-05T02:04:54.074Z,101282.20
2019-04-05T02:07:25.444Z,101280.94
2019-04-05T02:09:56.836Z,101288.37
2019-04-05T02:12:29.045Z,101289.48
2019-04-05T02:15:00.345Z,101284.23
2019-04-05T02:17:31.661Z,101287.31
2019-04-05T02:20:02.915Z,101296.25
2019-04-05T02:22:34.586Z,101296.25
2019-04-05T02:27:35.725Z,101300.89
2019-04-05T02:30:06.934Z,101306.72
2019-04-05T02:32:38.318Z,101312.17
2019-04-05T02:35:09.691Z,101325.31
2019-04-05T02:37:41.201Z,101324.58
2019-04-05T02:40:14.451Z,101323.62
2019-04-05T02:42:45.673Z,101324.78
2019-04-05T02:45:18.553Z,101329.58
2019-04-05T02:47:52.487Z,101333.07
2019-04-05T02:50:25.257Z,101336.83
2019-04-05T02:52:57.425Z,101338.45
2019-04-05T02:55:29.790Z,101335.59
2019-04-05T02:58:01.857Z,101342.56
2019-04-05T03:00:34.028Z,101344.25
2019-04-05T03:03:05.260Z,101343.52
2019-04-05T03:05:37.263Z,101346.07
2019-04-05T03:08:08.695Z,101348.83
2019-04-05T03:10:46.931Z,101348.30
2019-04-05T03:13:18.424Z,101349.83
2019-04-05T03:15:49.810Z,101358.56
2019-04-05T03:18:21.048Z,101356.45
2019-04-05T03:20:52.388Z,101362.08
2019-04-05T03:23:24.062Z,101366.16
2019-04-05T03:25:57.500Z,101374.58
2019-04-05T03:28:29.117Z,101373.39
2019-04-05T03:31:04.240Z,101378.92
2019-04-05T03:33:36.837Z,101374.95
2019-04-05T03:36:11.743Z,101376.94
2019-04-05T03:38:44.339Z,101382.97
2019-04-05T03:41:15.588Z,101392.44
2019-04-05T03:43:48.185Z,101398.15
2019-04-05T03:46:19.480Z,101399.78
2019-04-05T03:48:54.042Z,101396.84
2019-04-05T03:51:26.019Z,101395.84
2019-04-05T03:53:59.951Z,101393.88
2019-04-05T03:56:33.325Z,101405.27
2019-04-05T03:59:05.280Z,101413.00
2019-04-05T04:01:36.560Z,101412.05
2019-04-05T04:04:09.766Z,101413.48
2019-04-05T04:06:43.049Z,101408.58
2019-04-05T04:09:14.303Z,101415.22
2019-04-05T04:11:45.714Z,101412.25
2019-04-05T04:14:17.322Z,101409.98
2019-04-05T04:16:48.481Z,101413.02
2019-04-05T04:19:19.860Z,101418.75
2019-04-05T04:22:11.135Z,101424.23
2019-04-05T04:24:42.599Z,101428.73
2019-04-05T04:27:18.839Z,101430.77
2019-04-05T04:29:50.159Z,101426.58
2019-04-05T04:32:21.516Z,101428.30
2019-04-05T04:34:54.527Z,101427.09
2019-04-05T04:37:28.127Z,101426.16
2019-04-05T04:39:59.442Z,101426.30
2019-04-05T04:42:31.912Z,101432.83
2019-04-05T04:45:11.872Z,101431.59
2019-04-05T04:47:37.330Z,101423.95
2019-04-05T04:50:08.575Z,101424.15
2019-04-05T04:52:41.551Z,101425.20
2019-04-05T04:55:14.552Z,101428.58
2019-04-05T04:57:47.561Z,101430.09
2019-04-05T05:00:18.922Z,101434.40
2019-04-05T05:02:50.218Z,101432.77
2019-04-05T05:05:22.101Z,101425.53
2019-04-05T05:07:55.348Z,101430.80
2019-04-05T05:10:27.645Z,101425.57
2019-04-05T05:13:01.839Z,101435.36
2019-04-05T05:15:33.235Z,101438.22
2019-04-05T05:18:07.032Z,101431.36
2019-04-05T05:20:38.503Z,101432.25
2019-04-05T05:23:11.582Z,101429.90
2019-04-05T05:25:43.094Z,101435.42
2019-04-05T05:28:14.579Z,101428.80
2019-04-05T05:30:46.085Z,101432.94
2019-04-05T05:33:18.522Z,101433.68
2019-04-05T05:35:49.840Z,101433.95
2019-04-05T05:38:21.023Z,101441.59
2019-04-05T05:40:55.431Z,101429.79
2019-04-05T05:43:27.613Z,101436.84
2019-04-05T05:46:00.178Z,101438.28
2019-04-05T05:48:32.506Z,101430.22
2019-04-05T05:51:03.874Z,101436.69
2019-04-05T05:53:35.422Z,101434.33
2019-04-05T05:56:06.651Z,101435.42
2019-04-05T05:58:39.260Z,101436.27
2019-04-05T06:01:10.581Z,101439.97
2019-04-05T06:03:42.098Z,101440.06
2019-04-05T06:06:14.007Z,101437.89
2019-04-05T06:08:45.139Z,101441.18
2019-04-05T06:11:17.564Z,101447.39
2019-04-05T06:13:49.174Z,101443.27
2019-04-05T06:16:21.198Z,101444.11
2019-04-05T06:18:52.692Z,101441.28
2019-04-05T06:21:25.187Z,101438.96
2019-04-05T06:23:56.589Z,101442.89
2019-04-05T06:26:27.956Z,101441.92
2019-04-05T06:28:59.306Z,101448.22
2019-04-05T06:31:30.833Z,101450.18
2019-04-05T06:34:03.206Z,101455.32
2019-04-05T06:36:35.802Z,101456.36
2019-04-05T06:39:08.236Z,101447.24
2019-04-05T06:41:39.470Z,101448.36
2019-04-05T06:44:11.097Z,101452.77
2019-04-05T06:46:46.165Z,101457.25
2019-04-05T06:49:17.276Z,101457.84
2019-04-05T06:51:50.364Z,101460.03
2019-04-05T06:54:21.752Z,101460.08
2019-04-05T06:56:54.908Z,101461.91
2019-04-05T06:59:37.204Z,101462.84
2019-04-05T07:02:09.214Z,101464.23
2019-04-05T07:04:41.441Z,101467.52
2019-04-05T07:07:12.606Z,101473.59
2019-04-05T07:09:44.167Z,101472.00
2019-04-05T07:12:15.519Z,101474.67
2019-04-05T07:14:51.457Z,101473.63
2019-04-05T07:17:26.500Z,101470.87
2019-04-05T07:19:57.925Z,101473.54
2019-04-05T07:22:38.555Z,101472.11
2019-04-05T07:25:02.953Z,101475.46
2019-04-05T07:27:34.861Z,101471.55
2019-04-05T07:30:08.241Z,101472.70
2019-04-05T07:32:41.746Z,101468.73
2019-04-05T07:35:14.347Z,101475.92
2019-04-05T07:37:46.523Z,101467.03
2019-04-05T07:40:19.134Z,101473.09
2019-04-05T07:42:50.589Z,101475.94
2019-04-05T07:45:23.099Z,101472.90
2019-04-05T07:47:54.872Z,101468.56
2019-04-05T07:50:26.834Z,101466.45
2019-04-05T07:52:58.140Z,101467.63
2019-04-05T07:55:29.893Z,101471.97
2019-04-05T07:58:01.703Z,101467.45
2019-04-05T08:00:46.566Z,101468.03
2019-04-05T08:03:17.225Z,101468.07
2019-04-05T08:05:48.300Z,101473.20
2019-04-05T08:08:35.723Z,101469.88
2019-04-05T08:11:07.138Z,101470.19
2019-04-05T08:13:41.545Z,101469.25
2019-04-05T08:16:13.318Z,101466.59
2019-04-05T08:18:58.079Z,101469.22
2019-04-05T08:21:29.222Z,101468.15
2019-04-05T08:24:00.841Z,101466.76
2019-04-05T08:26:35.533Z,101460.80
2019-04-05T08:29:07.253Z,101460.03
2019-04-05T08:31:40.535Z,101458.55
2019-04-05T08:34:11.849Z,101449.11
2019-04-05T08:36:43.052Z,101449.48
2019-04-05T08:39:16.223Z,101445.66
2019-04-05T08:41:48.917Z,101453.13
2019-04-05T08:44:22.061Z,101454.27
2019-04-05T08:46:54.553Z,101454.07
2019-04-05T08:49:25.883Z,101452.08
2019-04-05T08:51:57.293Z,101453.80
2019-04-05T08:54:32.772Z,101458.23
2019-04-05T08:57:35.202Z,101457.43
2019-04-05T09:00:10.346Z,101454.95
2019-04-05T09:02:42.790Z,101449.50
2019-04-05T09:05:19.804Z,101451.78
2019-04-05T09:07:51.193Z,101446.53
2019-04-05T09:10:22.553Z,101451.14
2019-04-05T09:12:53.745Z,101448.80
2019-04-05T09:15:26.054Z,101451.11
2019-04-05T09:17:57.481Z,101440.36
2019-04-05T09:20:28.689Z,101442.59
2019-04-05T09:22:59.830Z,101434.06
2019-04-05T09:25:31.008Z,101432.66
2019-04-05T09:28:02.850Z,101430.66
2019-04-05T09:30:33.993Z,101428.39
2019-04-05T09:33:05.262Z,101434.55
2019-04-05T09:35:36.404Z,101428.19
2019-04-05T09:38:10.685Z,101422.18
2019-04-05T09:40:42.749Z,101418.90
2019-04-05T09:43:15.895Z,101416.86
2019-04-05T09:45:49.897Z,101419.06
2019-04-05T09:48:21.581Z,101424.80
2019-04-05T09:50:52.894Z,101423.76
2019-04-05T09:53:26.460Z,101431.52
2019-04-05T09:55:57.956Z,101425.98
2019-04-05T09:58:31.487Z,101425.05
2019-04-05T10:01:03.607Z,101418.88
2019-04-05T10:03:36.629Z,101422.78
2019-04-05T10:06:08.994Z,101419.50
2019-04-05T10:08:40.590Z,101422.83
2019-04-05T10:11:11.903Z,101415.05
2019-04-05T10:13:43.305Z,101418.56
2019-04-05T10:16:15.680Z,101421.63
2019-04-05T10:18:46.948Z,101418.62
2019-04-05T10:21:20.620Z,101419.53
2019-04-05T10:23:51.858Z,101420.39
2019-04-05T10:26:25.295Z,101415.66
2019-04-05T10:28:56.626Z,101408.72
2019-04-05T10:31:27.903Z,101412.39
2019-04-05T10:33:59.220Z,101403.57
2019-04-05T10:36:31.202Z,101404.14
2019-04-05T10:39:08.583Z,101403.69
2019-04-05T10:41:43.434Z,101398.71
2019-04-05T10:44:16.227Z,101392.89
2019-04-05T10:46:48.595Z,101395.69
2019-04-05T10:49:19.826Z,101398.59
2019-04-05T10:51:58.524Z,101396.70
2019-04-05T10:54:31.325Z,101387.48
2019-04-05T10:57:04.354Z,101395.30
2019-04-05T10:59:38.524Z,101391.88
2019-04-05T11:02:10.343Z,101379.76
2019-04-05T11:04:42.672Z,101384.36
2019-04-05T11:07:14.398Z,101385.63
2019-04-05T11:09:46.328Z,101387.91
2019-04-05T11:12:17.830Z,101382.44
2019-04-05T11:14:49.706Z,101393.66
2019-04-05T11:17:21.354Z,101388.81
2019-04-05T11:19:53.724Z,101385.77
2019-04-05T11:22:25.256Z,101380.23
2019-04-05T11:24:57.200Z,101378.18
2019-04-05T11:27:28.468Z,101375.55
2019-04-05T11:29:59.862Z,101371.64
2019-04-05T11:32:31.098Z,101362.78
2019-04-05T11:35:02.519Z,101365.09
2019-04-05T11:37:34.697Z,101365.56
2019-04-05T11:40:08.387Z,101357.45
2019-04-05T11:42:41.051Z,101361.52
2019-04-05T11:45:12.716Z,101356.91
2019-04-05T11:47:45.871Z,101346.64
2019-04-05T11:50:17.506Z,101349.28
2019-04-05T11:52:49.704Z,101349.70
2019-04-05T11:55:21.908Z,101348.55
2019-04-05T11:57:54.863Z,101354.39
2019-04-05T12:00:43.658Z,101346.97
2019-04-05T12:03:25.827Z,101343.25
2019-04-05T12:05:58.507Z,101342.41
2019-04-05T12:08:30.994Z,101340.05
2019-04-05T12:11:02.927Z,101337.64
2019-04-05T12:13:34.402Z,101337.59
2019-04-05T12:16:10.351Z,101339.22
2019-04-05T12:18:42.974Z,101340.41
2019-04-05T12:21:20.641Z,101329.58
2019-04-05T12:23:51.647Z,101327.36
2019-04-05T12:26:23.212Z,101329.98
2019-04-05T12:28:54.686Z,101324.36
2019-04-05T12:31:26.859Z,101320.66
2019-04-05T12:33:58.304Z,101333.25
2019-04-05T12:36:32.294Z,101324.84
2019-04-05T12:39:08.159Z,101324.52
2019-04-05T12:41:41.858Z,101324.12
2019-04-05T12:44:15.495Z,101325.18
2019-04-05T12:46:46.895Z,101315.84
2019-04-05T12:49:18.147Z,101318.20
2019-04-05T12:51:50.238Z,101322.47
2019-04-05T12:54:21.449Z,101315.05
2019-04-05T12:56:54.282Z,101316.50
2019-04-05T12:59:26.275Z,101309.77
2019-04-05T13:01:59.722Z,101312.59
2019-04-05T13:04:31.055Z,101306.33
2019-04-05T13:07:03.334Z,101305.94
2019-04-05T13:09:37.266Z,101303.77
2019-04-05T13:12:08.707Z,101299.50
2019-04-05T13:14:39.947Z,101300.89
2019-04-05T13:17:11.094Z,101297.47
2019-04-05T13:19:42.980Z,101288.00
2019-04-05T13:22:14.197Z,101293.89
2019-04-05T13:24:47.492Z,101306.88
2019-04-05T13:27:18.847Z,101301.59
2019-04-05T13:29:53.153Z,101296.85
2019-04-05T13:32:25.925Z,101297.64
2019-04-05T13:35:01.273Z,101297.66
2019-04-05T13:37:34.422Z,101305.39
2019-04-05T13:40:14.170Z,101305.54
2019-04-05T13:43:08.107Z,101297.61
2019-04-05T13:45:41.747Z,101300.19
2019-04-05T13:48:13.235Z,101304.80
2019-04-05T13:50:44.558Z,101303.31
2019-04-05T13:53:15.689Z,101303.30
2019-04-05T13:55:47.903Z,101297.19
2019-04-05T13:58:19.242Z,101294.69
2019-04-05T14:00:53.329Z,101285.02
2019-04-05T14:03:25.803Z,101297.73
2019-04-05T14:05:58.456Z,101287.73
2019-04-05T14:08:32.842Z,101294.07
2019-04-05T14:11:05.472Z,101297.64
2019-04-05T14:13:42.801Z,101292.35
2019-04-05T14:16:16.094Z,101295.27
2019-04-05T14:18:49.806Z,101290.94
2019-04-05T14:21:22.229Z,101302.40
2019-04-05T14:23:55.288Z,101303.90
2019-04-05T14:26:27.381Z,101303.55
2019-04-05T14:29:03.409Z,101301.49
2019-04-05T14:31:40.296Z,101306.39
2019-04-05T14:34:15.839Z,101283.33
2019-04-05T14:36:52.448Z,101301.23
2019-04-05T14:39:26.639Z,101302.17
2019-04-05T14:42:09.067Z,101307.16
2019-04-05T14:44:32.151Z,101302.17
2019-04-05T14:47:04.547Z,101305.58
2019-04-05T14:49:36.633Z,101308.39
2019-04-05T14:52:07.942Z,101302.13
2019-04-05T14:54:39.728Z,101301.83
2019-04-05T14:57:11.461Z,101299.21
2019-04-05T14:59:47.957Z,101304.41
2019-04-05T15:02:21.090Z,101300.66
2019-04-05T15:05:13.512Z,101306.75
2019-04-05T15:07:51.094Z,101306.39
2019-04-05T15:10:25.295Z,101302.61
2019-04-05T15:13:01.752Z,101305.39
2019-04-05T15:15:33.962Z,101307.27
2019-04-05T15:18:07.881Z,101306.45
2019-04-05T15:20:39.332Z,101310.02
2019-04-05T15:23:14.065Z,101305.77
2019-04-05T15:25:49.430Z,101302.50
2019-04-05T15:28:20.196Z,101307.14
2019-04-05T15:30:55.685Z,101307.23
2019-04-05T15:33:27.443Z,101303.34
2019-04-05T15:36:00.175Z,101305.64
2019-04-05T15:38:31.681Z,101300.21
2019-04-05T15:41:07.121Z,101306.92
2019-04-05T15:43:41.067Z,101304.05
2019-04-05T15:46:13.045Z,101298.50
2019-04-05T15:48:44.611Z,101298.53
2019-04-05T15:51:16.409Z,101299.02
2019-04-05T15:53:47.910Z,101303.93
2019-04-05T15:56:21.753Z,101298.70
2019-04-05T15:58:52.717Z,101302.22
2019-04-05T16:01:23.880Z,101295.03
2019-04-05T16:03:55.047Z,101298.55
2019-04-05T16:06:26.296Z,101304.45
2019-04-05T16:08:57.542Z,101306.70
2019-04-05T16:11:31.760Z,101307.44
2019-04-05T16:14:05.136Z,101302.40
2019-04-05T16:16:36.662Z,101310.53
2019-04-05T16:19:08.572Z,101310.70
2019-04-05T16:21:39.940Z,101312.31
2019-04-05T16:24:12.168Z,101307.41
2019-04-05T16:26:43.385Z,101314.13
2019-04-05T16:29:16.998Z,101316.00
2019-04-05T16:31:49.656Z,101314.55
2019-04-05T16:34:21.661Z,101322.64
2019-04-05T16:36:53.175Z,101322.91
2019-04-05T16:39:24.418Z,101326.85
2019-04-05T16:41:59.143Z,101330.60
2019-04-05T16:44:30.404Z,101335.38
2019-04-05T16:47:01.639Z,101339.53
2019-04-05T16:49:32.991Z,101337.57
2019-04-05T16:52:04.273Z,101342.65
2019-04-05T16:54:36.272Z,101344.72
2019-04-05T16:57:08.964Z,101342.09
2019-04-05T16:59:40.399Z,101345.55
2019-04-05T17:02:11.612Z,101349.84
2019-04-05T17:04:43.427Z,101352.77
2019-04-05T17:07:17.013Z,101353.15
2019-04-05T17:09:48.191Z,101359.11
2019-04-05T17:12:21.244Z,101359.36
2019-04-05T17:14:53.867Z,101359.48
2019-04-05T17:17:37.154Z,101361.32
2019-04-05T17:20:08.662Z,101364.73
2019-04-05T17:22:40.214Z,101359.01
2019-04-05T17:25:15.921Z,101360.57
2019-04-05T17:27:49.109Z,101360.82
2019-04-05T17:30:21.058Z,101364.98
2019-04-05T17:32:55.391Z,101366.69
2019-04-05T17:35:27.158Z,101360.88
2019-04-05T17:38:03.327Z,101365.02
2019-04-05T17:40:35.038Z,101367.94
2019-04-05T17:43:06.432Z,101373.27
2019-04-05T17:45:38.295Z,101377.23
2019-04-05T17:48:09.541Z,101373.09
2019-04-05T17:50:40.732Z,101371.51
2019-04-05T17:53:13.376Z,101373.84
2019-04-05T17:55:44.968Z,101365.34
2019-04-05T17:58:19.951Z,101367.36
2019-04-05T18:00:51.554Z,101365.86
2019-04-05T18:03:23.060Z,101369.36
2019-04-05T18:05:54.495Z,101361.05
2019-04-05T18:08:26.202Z,101367.98
2019-04-05T18:10:58.638Z,101365.97
2019-04-05T18:13:30.832Z,101371.88
2019-04-05T18:16:01.991Z,101365.95
2019-04-05T18:18:34.139Z,101371.84
2019-04-05T18:21:05.742Z,101375.27
2019-04-05T18:23:36.957Z,101372.58
2019-04-05T18:26:09.931Z,101368.66
2019-04-05T18:28:42.079Z,101365.11
2019-04-05T18:31:14.239Z,101369.73
2019-04-05T18:33:48.786Z,101371.66
2019-04-05T18:36:20.632Z,101368.43
2019-04-05T18:38:52.241Z,101360.71
2019-04-05T18:41:23.742Z,101368.81
2019-04-05T18:43:59.084Z,101370.55
2019-04-05T18:46:31.472Z,101373.86
2019-04-05T18:49:02.782Z,101366.77
2019-04-05T18:51:34.249Z,101372.13
2019-04-05T18:54:07.153Z,101371.92
2019-04-05T18:56:39.832Z,101374.36
2019-04-05T18:59:11.841Z,101376.12
2019-04-05T19:01:43.282Z,101368.02
2019-04-05T19:04:15.747Z,101377.61
2019-04-05T19:06:47.107Z,101376.02
2019-04-05T19:09:19.265Z,101372.05
2019-04-05T19:11:50.817Z,101380.61
2019-04-05T19:14:22.993Z,101377.70
2019-04-05T19:16:59.243Z,101384.59
2019-04-05T19:19:32.447Z,101380.61
2019-04-05T19:22:05.888Z,101386.09
2019-04-05T19:24:38.572Z,101386.36
2019-04-05T19:27:10.391Z,101376.22
2019-04-05T19:29:42.150Z,101377.45
2019-04-05T19:50:06.978Z,101384.94
2019-04-05T19:52:38.230Z,101379.41
2019-04-05T19:55:09.566Z,101386.69
2019-04-05T19:57:41.144Z,101378.63
2019-04-05T20:00:14.068Z,101383.30
2019-04-05T20:02:47.378Z,101385.83
2019-04-05T20:05:20.167Z,101385.41
2019-04-05T20:07:52.027Z,101388.19
2019-04-05T20:10:26.903Z,101386.73
2019-04-05T20:12:59.458Z,101387.02
2019-04-05T20:15:33.836Z,101378.50
2019-04-05T20:18:07.950Z,101391.58
2019-04-05T20:20:40.528Z,101388.91
2019-04-05T20:23:12.007Z,101397.08
2019-04-05T20:25:43.290Z,101399.80
2019-04-05T20:28:16.822Z,101395.05
2019-04-05T20:30:48.209Z,101394.14
2019-04-05T20:33:19.720Z,101398.95
2019-04-05T20:35:51.319Z,101331.03
2019-04-05T20:38:22.615Z,101396.95
2019-04-05T20:40:54.247Z,101397.27
2019-04-05T20:43:25.764Z,101398.66
2019-04-05T20:45:57.030Z,101400.03
2019-04-05T20:48:28.570Z,101405.53
2019-04-05T20:50:59.873Z,101400.34
2019-04-05T20:53:31.266Z,101400.09
2019-04-05T20:56:02.419Z,101396.78
2019-04-05T20:58:33.981Z,101401.43
2019-04-05T21:01:06.441Z,101401.95
2019-04-05T21:03:37.787Z,101404.22
2019-04-05T21:06:09.265Z,101406.25
2019-04-05T21:08:40.497Z,101409.00
2019-04-05T21:11:11.725Z,101410.29
2019-04-05T21:13:44.219Z,101415.33
2019-04-05T21:16:17.824Z,101414.20
2019-04-05T21:18:49.044Z,101408.51
2019-04-05T21:21:20.197Z,101409.02
2019-04-05T21:23:51.475Z,101411.94
2019-04-05T21:26:22.709Z,101419.34
2019-04-05T21:29:08.189Z,101410.06
2019-04-05T21:31:39.601Z,101416.87
2019-04-05T21:34:11.198Z,101414.39
2019-04-05T21:36:42.750Z,101415.44
2019-04-05T21:39:13.992Z,101416.30
2019-04-05T21:41:45.131Z,101419.91
2019-04-05T21:44:16.486Z,101413.86
2019-04-05T21:46:48.176Z,101411.23
2019-04-05T21:49:19.724Z,101417.28
2019-04-05T21:51:51.386Z,101421.52
2019-04-05T21:54:22.907Z,101425.98
2019-04-05T21:56:54.666Z,101418.23
2019-04-05T21:59:26.382Z,101422.95
2019-04-05T22:01:58.082Z,101427.66
2019-04-05T22:04:29.956Z,101426.05
2019-04-05T22:07:01.632Z,101428.44
2019-04-05T22:09:33.346Z,101429.55
2019-04-05T22:12:05.339Z,101423.94
2019-04-05T22:14:36.757Z,101417.95
2019-04-05T22:17:09.351Z,101418.06
2019-04-05T22:19:41.109Z,101421.92
2019-04-05T22:22:12.790Z,101414.89
2019-04-05T22:24:44.628Z,101420.64
2019-04-05T22:27:16.126Z,101418.07
2019-04-05T22:29:47.824Z,101420.43
2019-04-05T22:32:19.415Z,101420.67
2019-04-05T22:34:51.163Z,101417.80
2019-04-05T22:37:22.515Z,101420.41
2019-04-05T22:39:53.990Z,101418.80
2019-04-05T22:42:25.792Z,101416.23
2019-04-05T22:44:57.687Z,101422.32
2019-04-05T22:47:29.070Z,101420.36
2019-04-05T22:50:00.615Z,101422.19
2019-04-05T22:52:32.350Z,101425.19
2019-04-05T22:55:10.909Z,101424.44
2019-04-05T22:57:37.027Z,101428.29
2019-04-05T23:00:08.985Z,101432.64
2019-04-05T23:02:42.039Z,101428.39
2019-04-05T23:05:13.544Z,101429.44
2019-04-05T23:07:45.044Z,101431.66
2019-04-05T23:10:16.705Z,101426.09
2019-04-05T23:12:48.160Z,101427.06
2019-04-05T23:15:20.767Z,101430.14
2019-04-05T23:17:53.040Z,101428.61
2019-04-05T23:20:24.409Z,101423.63
2019-04-05T23:22:55.913Z,101421.61
2019-04-05T23:25:27.283Z,101422.59
2019-04-05T23:27:58.563Z,101425.45
2019-04-05T23:30:33.062Z,101429.38
2019-04-05T23:33:04.580Z,101431.94
2019-04-05T23:35:36.134Z,101429.20
2019-04-05T23:38:07.999Z,101427.75
2019-04-05T23:40:39.587Z,101429.81
2019-04-05T23:43:11.390Z,101432.58
2019-04-05T23:45:42.874Z,101429.41
2019-04-05T23:48:14.727Z,101434.44
2019-04-05T23:50:46.373Z,101429.09
2019-04-05T23:53:17.979Z,101428.70
2019-04-05T23:55:49.691Z,101428.53
2019-04-05T23:58:21.460Z,101431.91
